Rices Crossing, Texas
Current Conditions -  °F | °C
As of 6:55 PM on Wednesday 22 Oct 2014 (Local Time) from KGRK Reporting Station
Broken Clouds Broken Clouds  
Wind Chill: 75°   Ceiling: 30000
Heat Index: 75°   Visibility: 7mi
Dew Point: 57°   Wind: 6mph
Humidity: 53%   Direction: 100°E
Pressure: 30.08"   Gusts: NA
Location:  30.5793°N, 97.5096°W
Report Text: KGRK 222355Z 10005KT 7SM FEW150 BKN300 24/14 A3008 RMK SLP184 53003
Loading
Personal Weather Stations






























Interactive Weather Map
Tropical Storm Tracking
New forecast layout! Learn more

10-Day Weather Forecast

Advertisements
Track Severe Weather on mobile